| time (UTC) | temp F | wind direction | speed MPH | gust MPH | rain 1hr in | rain 24hr in | rain mn in | humidity % | barometer mb |
| 20260505093327 | 57 | 175 | 0.0 | 1.0 | 0.00 | 0.00 | 0.00 | 63 | 1008.4 |
| 20260505091824 | 58 | 201 | 0.0 | 0.0 | 0.00 | 0.00 | 0.00 | 63 | 1008.3 |
| 20260505090337 | 57 | 203 | 0.0 | 2.0 | 0.00 | 0.00 | 0.00 | 62 | 1008.2 |
| 20260505084827 | 57 | 194 | 0.0 | 3.0 | 0.00 | 0.00 | 0.00 | 65 | 1008.2 |
| 20260505083404 | 57 | 204 | 0.0 | 0.0 | 0.00 | 0.00 | 0.00 | 67 | 1008.3 |
| 20260505081837 | 57 | 205 | 0.0 | 3.0 | 0.00 | 0.00 | 0.00 | 69 | 1008.4 |
| 20260505080353 | 57 | 150 | 0.0 | 1.0 | 0.00 | 0.00 | 0.00 | 69 | 1008.3 |
| 20260505074825 | 57 | 176 | 0.0 | 2.0 | 0.00 | 0.00 | 0.00 | 69 | 1008.3 |
| 20260505073337 | 57 | 200 | 0.0 | 1.0 | 0.00 | 0.00 | 0.00 | 69 | 1008.2 |
| 20260505071833 | 57 | 211 | 0.0 | 0.0 | 0.00 | 0.00 | 0.00 | 70 | 1008.1 |
| 20260505070326 | 57 | 213 | 0.0 | 1.0 | 0.00 | 0.00 | 0.00 | 70 | 1008.1 |
| 20260505064841 | 58 | 233 | 0.0 | 2.0 | 0.00 | 0.00 | 0.00 | 71 | 1008.2 |
| 20260505063353 | 58 | 210 | 1.0 | 3.0 | 0.00 | 0.00 | 0.00 | 70 | 1008.2 |
| 20260505061828 | 58 | 150 | 1.0 | 4.0 | 0.00 | 0.00 | 0.00 | 70 | 1008.3 |
| 20260505060340 | 58 | 199 | 1.0 | 4.0 | 0.00 | 0.00 | 0.00 | 70 | 1008.3 |
| 20260505054831 | 59 | 207 | 1.0 | 3.0 | 0.00 | 0.00 | 0.00 | 69 | 1008.3 |
| 20260505053327 | 59 | 235 | 1.0 | 4.0 | 0.00 | 0.00 | 0.00 | 68 | 1008.4 |
| 20260505051840 | 59 | 221 | 0.0 | 6.0 | 0.00 | 0.00 | 0.00 | 67 | 1008.4 |
| 20260505050336 | 60 | 176 | 1.0 | 5.0 | 0.00 | 0.00 | 0.00 | 67 | 1008.6 |
| 20260505040330 | 59 | 194 | 1.0 | 6.0 | 0.00 | 0.00 | 0.00 | 66 | 1008.7 |
| 20260505034826 | 59 | 155 | 1.0 | 4.0 | 0.00 | 0.00 | 0.00 | 65 | 1008.7 |
| 20260505033339 | 59 | 217 | 1.0 | 5.0 | 0.00 | 0.00 | 0.00 | 65 | 1008.8 |
| 20260505031836 | 59 | 250 | 1.0 | 4.0 | 0.00 | 0.00 | 0.00 | 65 | 1008.9 |
| 20260505030348 | 60 | 217 | 0.0 | 4.0 | 0.00 | 0.00 | 0.00 | 64 | 1009.0 |
| 20260505024825 | 60 | 160 | 2.0 | 4.0 | 0.00 | 0.00 | 0.00 | 63 | 1009.0 |
| 20260505023337 | 60 | 167 | 0.0 | 3.0 | 0.00 | 0.00 | 0.00 | 62 | 1009.1 |
| 20260505021849 | 60 | 151 | 1.0 | 5.0 | 0.00 | 0.00 | 0.00 | 60 | 1009.4 |
| 20260505020325 | 61 | 196 | 0.0 | 3.0 | 0.00 | 0.00 | 0.00 | 58 | 1009.3 |
| 20260505014836 | 61 | 193 | 1.0 | 3.0 | 0.00 | 0.00 | 0.00 | 57 | 1009.2 |
| 20260505013331 | 62 | 190 | 0.0 | 6.0 | 0.00 | 0.00 | 0.00 | 56 | 1009.1 |
| 20260505011844 | 62 | 110 | 1.0 | 4.0 | 0.00 | 0.00 | 0.00 | 55 | 1008.9 |
| 20260505010340 | 63 | 217 | 0.0 | 4.0 | 0.00 | 0.00 | 0.00 | 53 | 1008.7 |
| 20260505004832 | 64 | 188 | 0.0 | 5.0 | 0.00 | 0.00 | 0.00 | 51 | 1008.6 |
| 20260505001830 | 65 | 179 | 2.0 | 4.0 | 0.00 | 0.00 | 0.00 | 47 | 1008.2 |
| 20260505000343 | 66 | 196 | 0.0 | 0.0 | 0.00 | 0.00 | 0.00 | 43 | 1007.9 |
| 20260504234841 | 67 | 196 | 0.0 | 1.0 | 0.00 | 0.00 | 0.00 | 40 | 1007.7 |
| 20260504233333 | 69 | 144 | 0.0 | 3.0 | 0.00 | 0.00 | 0.00 | 38 | 1007.6 |
| 20260504231829 | 69 | 223 | 0.0 | 3.0 | 0.00 | 0.00 | 0.00 | 37 | 1007.4 |
| 20260504230401 | 71 | 143 | 0.0 | 6.0 | 0.00 | 0.00 | 0.00 | 35 | 1007.4 |
| 20260504224831 | 73 | 113 | 0.0 | 3.0 | 0.00 | 0.00 | 0.00 | 33 | 1007.3 |
| 20260504223328 | 73 | 147 | 1.0 | 4.0 | 0.00 | 0.00 | 0.00 | 32 | 1007.3 |
| 20260504221900 | 73 | 239 | 0.0 | 6.0 | 0.00 | 0.00 | 0.00 | 33 | 1007.4 |
| 20260504220336 | 73 | 329 | 1.0 | 4.0 | 0.00 | 0.00 | 0.00 | 31 | 1007.4 |
| 20260504214827 | 73 | 140 | 1.0 | 6.0 | 0.00 | 0.00 | 0.00 | 32 | 1007.5 |
| 20260504213340 | 73 | 355 | 2.0 | 4.0 | 0.00 | 0.00 | 0.00 | 32 | 1007.5 |
| 20260504211857 | 74 | 97 | 0.0 | 3.0 | 0.00 | 0.00 | 0.00 | 34 | 1007.6 |
| 20260504210327 | 73 | 184 | 0.0 | 4.0 | 0.00 | 0.00 | 0.00 | 32 | 1007.5 |
| 20260504204902 | 73 | 359 | 3.0 | 8.0 | 0.00 | 0.00 | 0.00 | 32 | 1007.6 |
| 20260504203331 | 73 | 226 | 2.0 | 11.0 | 0.00 | 0.00 | 0.00 | 31 | 1007.6 |
| 20260504201824 | 73 | 315 | 1.0 | 7.0 | 0.00 | 0.00 | 0.00 | 31 | 1007.6 |
| 20260504200342 | 73 | 146 | 2.0 | 8.0 | 0.00 | 0.00 | 0.00 | 31 | 1007.6 |
| 20260504194830 | 73 | 78 | 2.0 | 5.0 | 0.00 | 0.00 | 0.00 | 33 | 1007.8 |
| 20260504193347 | 73 | 50 | 0.0 | 7.0 | 0.00 | 0.00 | 0.00 | 33 | 1007.9 |
| 20260504191838 | 73 | 200 | 2.0 | 6.0 | 0.00 | 0.00 | 0.00 | 33 | 1008.2 |
| 20260504190329 | 72 | 257 | 2.0 | 8.0 | 0.00 | 0.00 | 0.00 | 34 | 1008.5 |
| 20260504184825 | 73 | 238 | 1.0 | 5.0 | 0.00 | 0.00 | 0.00 | 35 | 1008.6 |
| 20260504183337 | 72 | 99 | 1.0 | 8.0 | 0.00 | 0.00 | 0.00 | 35 | 1008.8 |
| 20260504181831 | 73 | 221 | 1.0 | 8.0 | 0.00 | 0.00 | 0.00 | 34 | 1009.0 |
| 20260504180323 | 73 | 185 | 2.0 | 6.0 | 0.00 | 0.00 | 0.00 | 33 | 1009.3 |
| 20260504174900 | 73 | 242 | 2.0 | 7.0 | 0.00 | 0.00 | 0.00 | 33 | 1009.4 |
| 20260504173331 | 73 | 242 | 0.0 | 7.0 | 0.00 | 0.00 | 0.00 | 34 | 1009.6 |
| 20260504171842 | 72 | 206 | 2.0 | 9.0 | 0.00 | 0.00 | 0.00 | 35 | 1009.8 |
| 20260504170337 | 73 | 281 | 1.0 | 5.0 | 0.00 | 0.00 | 0.00 | 34 | 1010.0 |
| 20260504160333 | 71 | 112 | 2.0 | 8.0 | 0.00 | 0.00 | 0.00 | 36 | 1010.7 |
| 20260504150326 | 71 | 257 | 1.0 | 4.0 | 0.00 | 0.00 | 0.00 | 39 | 1011.3 |
| 20260504140336 | 68 | 357 | 1.0 | 5.0 | 0.00 | 0.00 | 0.00 | 41 | 1011.6 |
| 20260504130332 | 65 | 198 | 1.0 | 4.0 | 0.00 | 0.00 | 0.00 | 46 | 1012.2 |
| 20260504110341 | 49 | 194 | 0.0 | 4.0 | 0.00 | 0.00 | 0.00 | 71 | 1012.7 |
| 20260504100337 | 45 | 94 | 0.0 | 2.0 | 0.00 | 0.00 | 0.00 | 72 | 1012.6 |